Dona, Louisiana
Current Conditions -  °F | °C
As of 9:56 PM on Friday 19 Dec 2014 (Local Time) from KSHV Reporting Station
Overcast Overcast  
Wind Chill: 42°   Ceiling: 700
Heat Index: 47°   Visibility: 9mi
Dew Point: 45°   Wind: 10mph
Humidity: 93%   Direction: 60°ENE
Pressure: 30.19"   Gusts: NA
Location:  32.117°N, 93.8044°W
Report Text: KSHV 200356Z 06009KT 9SM OVC007 08/07 A3019 RMK AO2 DZE02 SLP222 P0000 T00830072
Loading
Personal Weather Stations






























Interactive Weather Map New forecast layout! Learn more

10-Day Weather Forecast

Advertisements
Track Severe Weather on mobile